»·PEaware :: UAL783 KLAX-KIAD

UAL783 :: KLAX-KIAD

FLIGHT INFORMATION

Flight Status: Arrived
Operator:
United Airlines
More flights by this operator :: More flights under this callsign
Pilot: Joshua O. (1597)
Aircraft: BOEING 767-300
(B763)
More flights by this aircraft type
Origin: KLAX Los Angeles Intl
United States
Destination: KIAD Washington Dulles Intl
United States
More flights between these airports :: More routes between these airports
Route: HOLTZ1 TRM PKE J78 ABQ FTI J8 SEGLR J8 SGF J98 PLESS J78 IIU JH526 BKW GIBBZ2
File this flight plan on PilotEdge
Remarks:
Altitude:
(Current/Filed)
31,000ft
Speed:
(Current/Filed)
500kts
Departed: 31-Dec-16 08:28 PM
Arrived: 01-Jan-17 12:32 AM
Distance/Time
Traveled:
1983nm/4:04
Distance/Time
To Go:
Arrived

Flight Plot

Page will automatically refresh every two minutes.

Flight plan parsing failed; only flown route is shown


Map Options




Map Legend


Flown Route
Filed Route
Departure Airport
Arrival Airport
Navaid (VOR, NDB)
Fix

Horizontal Profiles

Position Reports

Time Latitude Longitude Heading Altitude Ground
Speed
31-Dec-16 20:03 33.940297 -118.399816 34 119ft 0kts
31-Dec-16 20:04 33.940297 -118.399816 34 119ft 0kts
31-Dec-16 20:05 33.940297 -118.399816 34 119ft 0kts
31-Dec-16 20:06 33.940297 -118.399816 34 119ft 0kts
31-Dec-16 20:07 33.940297 -118.399816 34 119ft 0kts
31-Dec-16 20:08 33.940297 -118.399816 34 119ft 0kts
31-Dec-16 20:09 33.940297 -118.399816 34 119ft 0kts
31-Dec-16 20:10 33.940297 -118.399816 34 119ft 0kts
31-Dec-16 20:11 33.940297 -118.399816 34 119ft 0kts
31-Dec-16 20:12 33.940297 -118.399816 34 119ft 0kts
31-Dec-16 20:13 33.940297 -118.399816 34 119ft 0kts
31-Dec-16 20:14 33.940297 -118.399816 34 119ft 0kts
31-Dec-16 20:15 33.940297 -118.399816 34 119ft 0kts
31-Dec-16 20:16 33.940297 -118.399816 34 119ft 0kts
31-Dec-16 20:17 33.940089 -118.400002 50 119ft 2kts
31-Dec-16 20:18 33.939970 -118.400258 80 120ft 0kts
31-Dec-16 20:19 33.939970 -118.400258 80 120ft 0kts
31-Dec-16 20:20 33.939978 -118.400207 80 120ft 1kts
31-Dec-16 20:21 33.939986 -118.400152 79 119ft 0kts
31-Dec-16 20:22 33.939702 -118.398260 128 116ft 3kts
31-Dec-16 20:23 33.939169 -118.395940 82 115ft 11kts
31-Dec-16 20:24 33.939654 -118.391467 82 109ft 17kts
31-Dec-16 20:25 33.940148 -118.386648 83 106ft 19kts
31-Dec-16 20:26 33.940651 -118.381758 84 103ft 18kts
31-Dec-16 20:27 33.939814 -118.380519 251 103ft 7kts
31-Dec-16 20:28 33.938587 -118.392523 263 110ft 132kts
31-Dec-16 20:29 33.932760 -118.446423 262 1623ft 190kts
31-Dec-16 20:30 33.897783 -118.502873 230 2970ft 243kts
31-Dec-16 20:31 33.843906 -118.555753 175 5164ft 256kts
31-Dec-16 20:32 33.773294 -118.540520 164 7372ft 278kts
31-Dec-16 20:33 33.698406 -118.505006 124 9652ft 296kts
31-Dec-16 20:34 33.666411 -118.414954 107 12373ft 300kts
31-Dec-16 20:35 33.645129 -118.318360 87 14726ft 304kts
31-Dec-16 20:36 33.644779 -118.215919 87 16925ft 313kts
31-Dec-16 20:37 33.644696 -118.109416 87 18647ft 333kts
31-Dec-16 20:38 33.644520 -117.994558 86 20300ft 354kts
31-Dec-16 20:39 33.644245 -117.882920 86 22078ft 363kts
31-Dec-16 20:40 33.643889 -117.775182 86 23582ft 372kts
31-Dec-16 20:41 33.643393 -117.657997 85 24966ft 382kts
31-Dec-16 20:42 33.642721 -117.529818 85 26245ft 394kts
31-Dec-16 20:43 33.641879 -117.396731 85 27449ft 406kts
31-Dec-16 20:44 33.641230 -117.261064 85 28561ft 417kts
31-Dec-16 20:45 33.640158 -117.120949 85 29612ft 427kts
31-Dec-16 20:46 33.638780 -116.977121 85 30555ft 438kts
31-Dec-16 20:47 33.637178 -116.829352 85 31398ft 448kts
31-Dec-16 20:48 33.635361 -116.678880 85 32164ft 458kts
31-Dec-16 20:49 33.633314 -116.525725 85 33067ft 460kts
31-Dec-16 20:50 33.631162 -116.369528 89 33055ft 479kts
31-Dec-16 20:51 33.629082 -116.209506 88 33112ft 494kts
31-Dec-16 20:52 33.664028 -116.051143 64 33732ft 485kts
31-Dec-16 20:53 33.710708 -115.907523 63 33869ft 456kts
31-Dec-16 20:54 33.755973 -115.767911 63 33744ft 441kts
31-Dec-16 20:55 33.802472 -115.624398 67 32738ft 484kts
31-Dec-16 20:56 33.851640 -115.471042 66 32925ft 503kts
31-Dec-16 20:57 33.902574 -115.312124 67 32921ft 518kts
31-Dec-16 20:58 33.954493 -115.150159 67 32926ft 518kts
31-Dec-16 20:59 34.005731 -114.988250 67 32920ft 519kts
31-Dec-16 21:00 34.056766 -114.826026 67 32918ft 519kts
31-Dec-16 21:01 34.106948 -114.664482 69 32917ft 520kts
31-Dec-16 21:02 34.153018 -114.500690 69 32918ft 520kts
31-Dec-16 21:03 34.199321 -114.335635 70 32915ft 521kts
31-Dec-16 21:04 34.245547 -114.171846 70 32911ft 521kts
31-Dec-16 21:05 34.291568 -114.005966 70 32913ft 521kts
31-Dec-16 21:06 34.337327 -113.839904 70 32914ft 521kts
31-Dec-16 21:07 34.382819 -113.673818 70 32916ft 522kts
31-Dec-16 21:08 34.428190 -113.507161 70 32925ft 522kts
31-Dec-16 21:09 34.473188 -113.340881 70 32938ft 522kts
31-Dec-16 21:10 34.518106 -113.175954 70 32947ft 522kts
31-Dec-16 21:11 34.562925 -113.008459 70 32957ft 522kts
31-Dec-16 21:12 34.607434 -112.840930 70 32963ft 523kts
31-Dec-16 21:13 34.651710 -112.673229 70 32967ft 523kts
31-Dec-16 21:14 34.695489 -112.505446 73 32968ft 523kts
31-Dec-16 21:15 34.715740 -112.332176 83 32968ft 524kts
31-Dec-16 21:16 34.732345 -112.156492 83 32965ft 524kts
31-Dec-16 21:17 34.748031 -111.980794 84 32967ft 525kts
31-Dec-16 21:18 34.763458 -111.804601 84 32969ft 525kts
31-Dec-16 21:19 34.778652 -111.628074 84 32971ft 525kts
31-Dec-16 21:20 34.793595 -111.451447 84 32973ft 525kts
31-Dec-16 21:21 34.808555 -111.275546 84 32964ft 526kts
31-Dec-16 21:22 34.823187 -111.099106 84 32966ft 526kts
31-Dec-16 21:23 34.837361 -110.922511 84 32968ft 526kts
31-Dec-16 21:24 34.851291 -110.745522 84 32970ft 526kts
31-Dec-16 21:25 34.864974 -110.568377 84 32972ft 526kts
31-Dec-16 21:26 34.878397 -110.391102 84 32974ft 527kts
31-Dec-16 21:27 34.891956 -110.214968 85 32966ft 527kts
31-Dec-16 21:28 34.904944 -110.037648 85 32967ft 527kts
31-Dec-16 21:29 34.917624 -109.859830 85 32969ft 527kts
31-Dec-16 21:30 34.930004 -109.682470 85 32971ft 527kts
31-Dec-16 21:31 34.942148 -109.504744 85 32973ft 527kts
31-Dec-16 21:32 34.953986 -109.328131 86 32969ft 527kts
31-Dec-16 21:33 34.966048 -109.150503 87 32966ft 527kts
31-Dec-16 21:34 34.973491 -108.972162 88 32968ft 527kts
31-Dec-16 21:35 34.980655 -108.793787 88 32970ft 528kts
31-Dec-16 21:36 34.987564 -108.615361 88 32972ft 528kts
31-Dec-16 21:37 34.994192 -108.437366 88 32984ft 528kts
31-Dec-16 21:38 35.000852 -108.262048 88 32983ft 528kts
31-Dec-16 21:39 35.007179 -108.083079 88 32990ft 528kts
31-Dec-16 21:40 35.013047 -107.904867 88 32994ft 528kts
31-Dec-16 21:41 35.018673 -107.725731 88 32997ft 528kts
31-Dec-16 21:42 35.023897 -107.547263 84 33003ft 524kts
31-Dec-16 21:43 35.028930 -107.373966 83 32995ft 512kts
31-Dec-16 21:44 35.034125 -107.200691 83 32974ft 511kts
31-Dec-16 21:45 35.038663 -107.027065 83 32971ft 515kts
31-Dec-16 21:46 35.043768 -106.852756 78 32960ft 512kts
31-Dec-16 21:47 35.089761 -106.693673 59 32969ft 497kts
31-Dec-16 21:48 35.145038 -106.544503 59 32976ft 498kts
31-Dec-16 21:49 35.201162 -106.392856 59 32976ft 498kts
31-Dec-16 21:50 35.258104 -106.239707 59 32955ft 500kts
31-Dec-16 21:51 35.315083 -106.084648 60 32948ft 501kts
31-Dec-16 21:52 35.371779 -105.929280 60 32946ft 501kts
31-Dec-16 21:53 35.428751 -105.772699 63 32893ft 513kts
31-Dec-16 21:54 35.487719 -105.609224 62 32951ft 537kts
31-Dec-16 21:55 35.549238 -105.437981 62 32948ft 562kts
31-Dec-16 21:56 35.612237 -105.262859 63 32912ft 562kts
31-Dec-16 21:57 35.658764 -105.081167 84 32924ft 566kts
31-Dec-16 21:58 35.670897 -104.888137 86 32916ft 565kts
31-Dec-16 21:59 35.681000 -104.695793 86 32919ft 565kts
31-Dec-16 22:00 35.690703 -104.503374 86 32923ft 565kts
31-Dec-16 22:01 35.700189 -104.311410 87 32908ft 565kts
31-Dec-16 22:02 35.709746 -104.118457 87 32910ft 564kts
31-Dec-16 22:03 35.718544 -103.925889 87 32915ft 565kts
31-Dec-16 22:04 35.727010 -103.733437 87 32918ft 565kts
31-Dec-16 22:05 35.735174 -103.540845 87 32922ft 565kts
31-Dec-16 22:06 35.743021 -103.348443 88 32928ft 565kts
31-Dec-16 22:07 35.751095 -103.156449 88 32927ft 564kts
31-Dec-16 22:08 35.758372 -102.963807 88 32937ft 564kts
31-Dec-16 22:09 35.765317 -102.770858 88 32941ft 564kts
31-Dec-16 22:10 35.771938 -102.578291 88 32944ft 564kts
31-Dec-16 22:11 35.778226 -102.386348 88 32937ft 564kts
31-Dec-16 22:12 35.784748 -102.194078 89 32930ft 564kts
31-Dec-16 22:13 35.790514 -102.001433 89 32937ft 564kts
31-Dec-16 22:14 35.795928 -101.808162 89 32943ft 564kts
31-Dec-16 22:15 35.801010 -101.615537 89 32947ft 564kts
31-Dec-16 22:16 35.805787 -101.422785 89 32951ft 564kts
31-Dec-16 22:17 35.795332 -101.232557 97 32948ft 562kts
31-Dec-16 22:18 35.780334 -101.041340 98 32960ft 561kts
31-Dec-16 22:19 35.764821 -100.850763 98 32967ft 561kts
31-Dec-16 22:20 35.748988 -100.660150 98 32973ft 561kts
31-Dec-16 22:21 35.732815 -100.469162 98 32977ft 561kts
31-Dec-16 22:22 35.716796 -100.280026 98 32967ft 562kts
31-Dec-16 22:23 35.700343 -100.089715 99 32966ft 560kts
31-Dec-16 22:24 35.683369 -99.899938 99 32969ft 560kts
31-Dec-16 22:25 35.666027 -99.709588 99 32972ft 560kts
31-Dec-16 22:26 35.648452 -99.520068 99 32976ft 560kts
31-Dec-16 22:27 35.633143 -99.330070 90 32964ft 563kts
31-Dec-16 22:28 35.655884 -99.141128 80 32964ft 564kts
31-Dec-16 22:29 35.681561 -98.951139 80 32968ft 564kts
31-Dec-16 22:30 35.706851 -98.761448 80 32973ft 564kts
31-Dec-16 22:31 35.731935 -98.570957 80 32991ft 564kts
31-Dec-16 22:32 35.756640 -98.380937 80 33000ft 564kts
31-Dec-16 22:33 35.781226 -98.193533 81 32988ft 564kts
31-Dec-16 22:34 35.807811 -98.004594 72 32990ft 564kts
31-Dec-16 22:35 35.868270 -97.827566 63 32998ft 561kts
31-Dec-16 22:36 35.930636 -97.651828 63 33001ft 561kts
31-Dec-16 22:37 35.992744 -97.475819 63 33005ft 560kts
31-Dec-16 22:38 36.054195 -97.301369 63 32988ft 560kts
31-Dec-16 22:39 36.115903 -97.125606 64 32990ft 561kts
31-Dec-16 22:40 36.177259 -96.948743 64 32993ft 561kts
31-Dec-16 22:41 36.238383 -96.771458 64 32997ft 561kts
31-Dec-16 22:42 36.299326 -96.593668 63 33000ft 561kts
31-Dec-16 22:43 36.359897 -96.415905 63 33004ft 561kts
31-Dec-16 22:44 36.420136 -96.239589 64 32996ft 561kts
31-Dec-16 22:45 36.480492 -96.060746 64 33024ft 561kts
31-Dec-16 22:46 36.540146 -95.882548 64 33040ft 561kts
31-Dec-16 22:47 36.599723 -95.703478 64 33042ft 561kts
31-Dec-16 22:48 36.658967 -95.524349 64 33050ft 561kts
31-Dec-16 22:49 36.717814 -95.345270 65 33057ft 561kts
31-Dec-16 22:50 36.776920 -95.166167 64 33044ft 561kts
31-Dec-16 22:51 36.835317 -94.986369 64 33048ft 561kts
31-Dec-16 22:52 36.893690 -94.805436 64 33052ft 561kts
31-Dec-16 22:53 36.951592 -94.624815 64 33056ft 561kts
31-Dec-16 22:54 37.009245 -94.443858 64 33059ft 562kts
31-Dec-16 22:55 37.065897 -94.265935 61 33025ft 544kts
31-Dec-16 22:56 37.121578 -94.089961 62 33041ft 546kts
31-Dec-16 22:57 37.177068 -93.912537 61 33034ft 546kts
31-Dec-16 22:58 37.232061 -93.735577 61 33031ft 546kts
31-Dec-16 22:59 37.286690 -93.558549 60 33037ft 542kts
31-Dec-16 23:00 37.341138 -93.381218 62 33034ft 546kts
31-Dec-16 23:01 37.371989 -93.193259 77 33019ft 558kts
31-Dec-16 23:02 37.394205 -93.000240 77 33022ft 558kts
31-Dec-16 23:03 37.415752 -92.807270 77 33035ft 558kts
31-Dec-16 23:04 37.436932 -92.614527 77 33047ft 558kts
31-Dec-16 23:05 37.457837 -92.421292 77 33043ft 558kts
31-Dec-16 23:06 37.478792 -92.229151 78 33023ft 559kts
31-Dec-16 23:07 37.499213 -92.035528 78 33022ft 559kts
31-Dec-16 23:08 37.519184 -91.841943 78 33025ft 559kts
31-Dec-16 23:09 37.538901 -91.647582 78 33027ft 559kts
31-Dec-16 23:10 37.558236 -91.453773 78 33031ft 559kts
31-Dec-16 23:11 37.577596 -91.260498 78 33016ft 559kts
31-Dec-16 23:12 37.596514 -91.066435 80 33031ft 561kts
31-Dec-16 23:13 37.615013 -90.871092 80 33042ft 561kts
31-Dec-16 23:14 37.633149 -90.676100 80 33049ft 561kts
31-Dec-16 23:15 37.650961 -90.481018 80 33055ft 561kts
31-Dec-16 23:16 37.668668 -90.286658 80 33039ft 561kts
31-Dec-16 23:17 37.689405 -90.092473 78 33045ft 560kts
31-Dec-16 23:18 37.710802 -89.898159 78 33054ft 560kts
31-Dec-16 23:19 37.731875 -89.703527 78 33068ft 560kts
31-Dec-16 23:20 37.752641 -89.508630 78 33077ft 560kts
31-Dec-16 23:21 37.773096 -89.314492 79 33067ft 560kts
31-Dec-16 23:22 37.793656 -89.119988 79 33070ft 561kts
31-Dec-16 23:23 37.813560 -88.924854 79 33074ft 561kts
31-Dec-16 23:24 37.833558 -88.729511 79 33078ft 561kts
31-Dec-16 23:25 37.853181 -88.534486 79 33081ft 560kts
31-Dec-16 23:26 37.872261 -88.341623 80 33082ft 560kts
31-Dec-16 23:27 37.891559 -88.149131 80 33070ft 560kts
31-Dec-16 23:28 37.910282 -87.953547 80 33074ft 560kts
31-Dec-16 23:29 37.928631 -87.757859 80 33077ft 560kts
31-Dec-16 23:30 37.945890 -87.561946 80 33081ft 560kts
31-Dec-16 23:31 37.962754 -87.366780 80 33084ft 560kts
31-Dec-16 23:32 37.979767 -87.172643 81 33070ft 561kts
31-Dec-16 23:33 37.996083 -86.976783 81 33073ft 561kts
31-Dec-16 23:34 38.011992 -86.781204 81 33077ft 560kts
31-Dec-16 23:35 38.027654 -86.584570 81 33080ft 560kts
31-Dec-16 23:36 38.042950 -86.388331 81 33084ft 560kts
31-Dec-16 23:37 38.058319 -86.193925 81 33069ft 561kts
31-Dec-16 23:38 38.073056 -85.997290 81 33073ft 561kts
31-Dec-16 23:39 38.087331 -85.801458 81 33076ft 561kts
31-Dec-16 23:40 38.100050 -85.607482 88 33072ft 561kts
31-Dec-16 23:41 38.077858 -85.415878 100 33087ft 563kts
31-Dec-16 23:42 38.048463 -85.222887 101 33064ft 563kts
31-Dec-16 23:43 38.017790 -85.028419 102 33058ft 563kts
31-Dec-16 23:44 37.986730 -84.834371 104 33056ft 563kts
31-Dec-16 23:45 37.955721 -84.642979 105 33055ft 556kts
31-Dec-16 23:46 37.924380 -84.451634 105 33056ft 555kts
31-Dec-16 23:47 37.893588 -84.263056 106 33054ft 554kts
31-Dec-16 23:48 37.861488 -84.070004 103 33059ft 574kts
31-Dec-16 23:49 37.827792 -83.870421 103 33073ft 584kts
31-Dec-16 23:50 37.793520 -83.669842 103 33080ft 584kts
31-Dec-16 23:51 37.758940 -83.469640 103 33085ft 584kts
31-Dec-16 23:52 37.724487 -83.270132 104 33065ft 584kts
31-Dec-16 23:53 37.689551 -83.070730 104 33071ft 584kts
31-Dec-16 23:54 37.653876 -82.870600 104 33073ft 584kts
31-Dec-16 23:55 37.640658 -82.667919 80 33089ft 584kts
31-Dec-16 23:56 37.660311 -82.464774 80 33087ft 585kts
31-Dec-16 23:57 37.679516 -82.263778 80 33068ft 585kts
31-Dec-16 23:58 37.698429 -82.060190 81 33073ft 585kts
31-Dec-16 23:59 37.716804 -81.856204 81 33077ft 585kts
01-Jan-17 00:00 37.734778 -81.652599 81 33100ft 586kts
01-Jan-17 00:01 37.752433 -81.448525 81 33104ft 586kts
01-Jan-17 00:02 37.770090 -81.245468 81 33078ft 586kts
01-Jan-17 00:03 37.807540 -81.048260 60 33088ft 574kts
01-Jan-17 00:04 37.861323 -80.894511 60 33080ft 575kts
01-Jan-17 00:05 37.926966 -80.711094 55 33077ft 570kts
01-Jan-17 00:06 38.017253 -80.550999 43 33086ft 557kts
01-Jan-17 00:07 38.125946 -80.371119 43 33093ft 556kts
01-Jan-17 00:08 38.219809 -80.216405 43 33069ft 557kts
01-Jan-17 00:09 38.308709 -80.053704 48 33047ft 563kts
01-Jan-17 00:10 38.380711 -79.916369 48 33037ft 563kts
01-Jan-17 00:11 38.449323 -79.734988 70 33064ft 583kts
01-Jan-17 00:12 38.490577 -79.535465 71 33069ft 584kts
01-Jan-17 00:13 38.530452 -79.335729 72 33061ft 584kts
01-Jan-17 00:14 38.572804 -79.123230 72 33047ft 585kts
01-Jan-17 00:15 38.603157 -78.954680 74 33051ft 586kts
01-Jan-17 00:16 38.639278 -78.760178 66 31605ft 554kts
01-Jan-17 00:17 38.681921 -78.583668 67 28388ft 479kts
01-Jan-17 00:18 38.718068 -78.430529 67 24803ft 430kts
01-Jan-17 00:19 38.775479 -78.315602 37 21088ft 374kts
01-Jan-17 00:20 38.842937 -78.221572 42 17302ft 352kts
01-Jan-17 00:21 38.879432 -78.105920 70 13655ft 356kts
01-Jan-17 00:22 38.910306 -77.982880 71 11590ft 368kts
01-Jan-17 00:23 38.939035 -77.867388 71 9139ft 314kts
01-Jan-17 00:24 38.967175 -77.762303 51 7135ft 317kts
01-Jan-17 00:25 39.028730 -77.682217 38 5410ft 317kts
01-Jan-17 00:26 39.091281 -77.604901 38 4133ft 307kts
01-Jan-17 00:27 39.124168 -77.516311 114 3319ft 283kts
01-Jan-17 00:28 39.082221 -77.443516 142 2871ft 227kts
01-Jan-17 00:29 39.031569 -77.428512 197 1087ft 173kts
01-Jan-17 00:30 38.991697 -77.434520 181 748ft 145kts
01-Jan-17 00:31 38.953523 -77.436013 181 317ft 148kts
01-Jan-17 00:32 38.938364 -77.437585 213 310ft 13kts
01-Jan-17 00:33 38.940420 -77.438652 359 306ft 17kts
01-Jan-17 00:34 38.944145 -77.439652 270 305ft 12kts
01-Jan-17 00:35 38.944144 -77.444597 269 301ft 15kts
01-Jan-17 00:36 38.944823 -77.445641 19 300ft 0kts
01-Jan-17 00:37 38.944812 -77.445646 19 300ft 0kts
01-Jan-17 00:38 38.944812 -77.445646 19 300ft 0kts
01-Jan-17 00:39 38.944812 -77.445646 19 300ft 0kts
01-Jan-17 00:40 38.944812 -77.445646 19 300ft 0kts
01-Jan-17 00:41 38.944812 -77.445646 19 300ft 0kts
01-Jan-17 00:42 38.944812 -77.445646 19 300ft 0kts
01-Jan-17 00:43 38.944812 -77.445646 19 300ft 0kts
01-Jan-17 00:44 38.944812 -77.445646 19 300ft 0kts

Navigation Log

Ident Type
Flight plan parsing failed, navigation log unavailable